sensor_id;sensor_type;location;lat;lon;timestamp;P1;durP1;ratioP1;P2;durP2;ratioP2
9117;SDS011;4594;50.994;7.126;2023-08-06T00:00:38;2.37;;;2.27;;
9117;SDS011;4594;50.994;7.126;2023-08-06T00:03:03;2.50;;;2.40;;
9117;SDS011;4594;50.994;7.126;2023-08-06T00:05:29;4.97;;;3.00;;
9117;SDS011;4594;50.994;7.126;2023-08-06T00:07:55;2.87;;;2.63;;
9117;SDS011;4594;50.994;7.126;2023-08-06T00:10:21;2.70;;;2.60;;
9117;SDS011;4594;50.994;7.126;2023-08-06T00:12:46;2.63;;;2.43;;
9117;SDS011;4594;50.994;7.126;2023-08-06T00:15:13;4.00;;;2.60;;
9117;SDS011;4594;50.994;7.126;2023-08-06T00:17:39;3.03;;;2.73;;
9117;SDS011;4594;50.994;7.126;2023-08-06T00:20:05;2.87;;;2.70;;
9117;SDS011;4594;50.994;7.126;2023-08-06T00:22:32;2.73;;;2.63;;
9117;SDS011;4594;50.994;7.126;2023-08-06T00:25:00;2.63;;;2.50;;
9117;SDS011;4594;50.994;7.126;2023-08-06T00:27:27;2.60;;;2.50;;
9117;SDS011;4594;50.994;7.126;2023-08-06T00:29:52;2.40;;;2.30;;
9117;SDS011;4594;50.994;7.126;2023-08-06T00:32:18;3.40;;;3.10;;
9117;SDS011;4594;50.994;7.126;2023-08-06T00:34:45;2.73;;;2.53;;
9117;SDS011;4594;50.994;7.126;2023-08-06T00:37:10;2.60;;;2.40;;
9117;SDS011;4594;50.994;7.126;2023-08-06T00:39:36;3.00;;;2.70;;
9117;SDS011;4594;50.994;7.126;2023-08-06T00:42:02;2.63;;;2.50;;
9117;SDS011;4594;50.994;7.126;2023-08-06T00:44:28;2.77;;;2.63;;
9117;SDS011;4594;50.994;7.126;2023-08-06T00:46:54;3.63;;;2.70;;
9117;SDS011;4594;50.994;7.126;2023-08-06T00:49:20;2.60;;;2.50;;
9117;SDS011;4594;50.994;7.126;2023-08-06T00:51:46;4.97;;;2.80;;
9117;SDS011;4594;50.994;7.126;2023-08-06T00:54:12;2.47;;;2.37;;
9117;SDS011;4594;50.994;7.126;2023-08-06T00:56:39;2.47;;;2.37;;
9117;SDS011;4594;50.994;7.126;2023-08-06T00:59:07;2.40;;;2.30;;
9117;SDS011;4594;50.994;7.126;2023-08-06T01:01:34;2.63;;;2.47;;
9117;SDS011;4594;50.994;7.126;2023-08-06T01:04:00;2.47;;;2.37;;
9117;SDS011;4594;50.994;7.126;2023-08-06T01:09:31;2.63;;;2.50;;
9117;SDS011;4594;50.994;7.126;2023-08-06T01:12:45;2.70;;;2.50;;
9117;SDS011;4594;50.994;7.126;2023-08-06T01:15:35;3.03;;;2.73;;
9117;SDS011;4594;50.994;7.126;2023-08-06T01:18:11;3.03;;;2.50;;
9117;SDS011;4594;50.994;7.126;2023-08-06T01:20:37;2.53;;;2.43;;
9117;SDS011;4594;50.994;7.126;2023-08-06T01:23:03;4.50;;;2.83;;
9117;SDS011;4594;50.994;7.126;2023-08-06T01:25:43;2.97;;;2.77;;
9117;SDS011;4594;50.994;7.126;2023-08-06T01:28:34;2.87;;;2.73;;
9117;SDS011;4594;50.994;7.126;2023-08-06T01:31:26;2.83;;;2.63;;
9117;SDS011;4594;50.994;7.126;2023-08-06T01:33:58;5.67;;;2.60;;
9117;SDS011;4594;50.994;7.126;2023-08-06T01:36:25;2.80;;;2.60;;
9117;SDS011;4594;50.994;7.126;2023-08-06T01:38:53;3.13;;;2.50;;
9117;SDS011;4594;50.994;7.126;2023-08-06T01:41:19;2.57;;;2.47;;
9117;SDS011;4594;50.994;7.126;2023-08-06T01:43:45;2.63;;;2.53;;
9117;SDS011;4594;50.994;7.126;2023-08-06T01:46:11;2.83;;;2.40;;
9117;SDS011;4594;50.994;7.126;2023-08-06T01:48:36;3.13;;;2.50;;
9117;SDS011;4594;50.994;7.126;2023-08-06T01:51:05;2.50;;;2.40;;
9117;SDS011;4594;50.994;7.126;2023-08-06T01:53:32;3.07;;;2.57;;
9117;SDS011;4594;50.994;7.126;2023-08-06T01:55:58;2.47;;;2.37;;
9117;SDS011;4594;50.994;7.126;2023-08-06T01:58:24;2.63;;;2.50;;
9117;SDS011;4594;50.994;7.126;2023-08-06T02:00:50;2.40;;;2.30;;
9117;SDS011;4594;50.994;7.126;2023-08-06T02:03:15;2.53;;;2.40;;
9117;SDS011;4594;50.994;7.126;2023-08-06T02:05:41;2.70;;;2.50;;
9117;SDS011;4594;50.994;7.126;2023-08-06T02:08:07;2.40;;;2.30;;
9117;SDS011;4594;50.994;7.126;2023-08-06T02:10:33;2.57;;;2.30;;
9117;SDS011;4594;50.994;7.126;2023-08-06T02:12:59;10.03;;;2.43;;
9117;SDS011;4594;50.994;7.126;2023-08-06T02:15:25;2.50;;;2.40;;
9117;SDS011;4594;50.994;7.126;2023-08-06T02:17:50;2.17;;;2.07;;
9117;SDS011;4594;50.994;7.126;2023-08-06T02:20:16;2.37;;;2.27;;
9117;SDS011;4594;50.994;7.126;2023-08-06T02:22:42;2.20;;;2.10;;
9117;SDS011;4594;50.994;7.126;2023-08-06T02:25:08;2.30;;;2.20;;
9117;SDS011;4594;50.994;7.126;2023-08-06T02:27:35;2.53;;;2.43;;
9117;SDS011;4594;50.994;7.126;2023-08-06T02:30:03;2.67;;;2.13;;
9117;SDS011;4594;50.994;7.126;2023-08-06T02:32:30;2.57;;;2.47;;
9117;SDS011;4594;50.994;7.126;2023-08-06T02:34:57;2.83;;;2.67;;
9117;SDS011;4594;50.994;7.126;2023-08-06T02:37:23;2.67;;;2.47;;
9117;SDS011;4594;50.994;7.126;2023-08-06T02:39:48;2.73;;;2.60;;
9117;SDS011;4594;50.994;7.126;2023-08-06T02:42:15;2.80;;;2.57;;
9117;SDS011;4594;50.994;7.126;2023-08-06T02:44:41;2.43;;;2.30;;
9117;SDS011;4594;50.994;7.126;2023-08-06T02:47:08;2.40;;;2.20;;
9117;SDS011;4594;50.994;7.126;2023-08-06T02:49:33;4.03;;;2.33;;
9117;SDS011;4594;50.994;7.126;2023-08-06T02:51:59;2.27;;;2.17;;
9117;SDS011;4594;50.994;7.126;2023-08-06T02:54:25;2.90;;;2.70;;
9117;SDS011;4594;50.994;7.126;2023-08-06T02:56:51;2.63;;;2.50;;
9117;SDS011;4594;50.994;7.126;2023-08-06T02:59:17;2.50;;;2.40;;
9117;SDS011;4594;50.994;7.126;2023-08-06T03:01:42;2.50;;;2.40;;
9117;SDS011;4594;50.994;7.126;2023-08-06T03:04:09;2.73;;;2.53;;
9117;SDS011;4594;50.994;7.126;2023-08-06T03:06:35;3.00;;;2.70;;
9117;SDS011;4594;50.994;7.126;2023-08-06T03:09:01;3.57;;;2.67;;
9117;SDS011;4594;50.994;7.126;2023-08-06T03:11:27;3.07;;;2.70;;
9117;SDS011;4594;50.994;7.126;2023-08-06T03:13:53;2.83;;;2.70;;
9117;SDS011;4594;50.994;7.126;2023-08-06T03:16:18;2.50;;;2.40;;
9117;SDS011;4594;50.994;7.126;2023-08-06T03:18:44;2.97;;;2.77;;
9117;SDS011;4594;50.994;7.126;2023-08-06T03:21:10;3.20;;;2.90;;
9117;SDS011;4594;50.994;7.126;2023-08-06T03:23:37;2.73;;;2.50;;
9117;SDS011;4594;50.994;7.126;2023-08-06T03:26:05;3.27;;;2.83;;
9117;SDS011;4594;50.994;7.126;2023-08-06T03:28:31;2.77;;;2.67;;
9117;SDS011;4594;50.994;7.126;2023-08-06T03:31:00;4.13;;;2.50;;
9117;SDS011;4594;50.994;7.126;2023-08-06T03:33:29;2.70;;;2.50;;
9117;SDS011;4594;50.994;7.126;2023-08-06T03:35:55;3.40;;;2.50;;
9117;SDS011;4594;50.994;7.126;2023-08-06T03:38:21;2.70;;;2.60;;
9117;SDS011;4594;50.994;7.126;2023-08-06T03:40:47;2.47;;;2.37;;
9117;SDS011;4594;50.994;7.126;2023-08-06T03:43:14;2.57;;;2.40;;
9117;SDS011;4594;50.994;7.126;2023-08-06T03:45:40;2.43;;;2.23;;
9117;SDS011;4594;50.994;7.126;2023-08-06T03:48:07;2.40;;;2.30;;
9117;SDS011;4594;50.994;7.126;2023-08-06T03:50:33;2.83;;;2.40;;
9117;SDS011;4594;50.994;7.126;2023-08-06T03:52:59;2.60;;;2.37;;
9117;SDS011;4594;50.994;7.126;2023-08-06T03:55:25;4.03;;;2.53;;
9117;SDS011;4594;50.994;7.126;2023-08-06T03:57:51;2.43;;;2.13;;
9117;SDS011;4594;50.994;7.126;2023-08-06T04:00:17;3.37;;;2.40;;
9117;SDS011;4594;50.994;7.126;2023-08-06T04:02:43;18.77;;;2.70;;
9117;SDS011;4594;50.994;7.126;2023-08-06T04:05:08;3.63;;;2.70;;
9117;SDS011;4594;50.994;7.126;2023-08-06T04:07:35;2.67;;;2.57;;
9117;SDS011;4594;50.994;7.126;2023-08-06T04:10:02;5.23;;;2.70;;
9117;SDS011;4594;50.994;7.126;2023-08-06T04:12:29;3.27;;;2.47;;
9117;SDS011;4594;50.994;7.126;2023-08-06T04:14:57;2.60;;;2.40;;
9117;SDS011;4594;50.994;7.126;2023-08-06T04:17:24;2.33;;;2.13;;
9117;SDS011;4594;50.994;7.126;2023-08-06T04:19:50;2.90;;;2.13;;
9117;SDS011;4594;50.994;7.126;2023-08-06T04:22:18;2.37;;;2.27;;
9117;SDS011;4594;50.994;7.126;2023-08-06T04:24:44;2.50;;;2.30;;
9117;SDS011;4594;50.994;7.126;2023-08-06T04:27:10;2.07;;;1.97;;
9117;SDS011;4594;50.994;7.126;2023-08-06T04:29:37;2.17;;;2.10;;
9117;SDS011;4594;50.994;7.126;2023-08-06T04:32:05;2.40;;;2.17;;
9117;SDS011;4594;50.994;7.126;2023-08-06T04:34:33;2.63;;;2.20;;
9117;SDS011;4594;50.994;7.126;2023-08-06T04:37:00;2.20;;;2.10;;
9117;SDS011;4594;50.994;7.126;2023-08-06T04:39:27;2.20;;;2.00;;
9117;SDS011;4594;50.994;7.126;2023-08-06T04:41:54;2.60;;;2.13;;
9117;SDS011;4594;50.994;7.126;2023-08-06T04:44:24;2.77;;;2.10;;
9117;SDS011;4594;50.994;7.126;2023-08-06T04:46:50;2.07;;;1.97;;
9117;SDS011;4594;50.994;7.126;2023-08-06T04:49:17;2.53;;;2.40;;
9117;SDS011;4594;50.994;7.126;2023-08-06T04:51:46;2.80;;;2.60;;
9117;SDS011;4594;50.994;7.126;2023-08-06T04:54:12;2.33;;;2.20;;
9117;SDS011;4594;50.994;7.126;2023-08-06T04:56:37;2.13;;;2.03;;
9117;SDS011;4594;50.994;7.126;2023-08-06T04:59:03;2.40;;;2.30;;
9117;SDS011;4594;50.994;7.126;2023-08-06T05:01:29;4.60;;;2.80;;
9117;SDS011;4594;50.994;7.126;2023-08-06T05:03:54;2.70;;;2.50;;
9117;SDS011;4594;50.994;7.126;2023-08-06T05:06:20;2.70;;;2.40;;
9117;SDS011;4594;50.994;7.126;2023-08-06T05:08:46;2.37;;;2.17;;
9117;SDS011;4594;50.994;7.126;2023-08-06T05:11:11;2.40;;;2.33;;
9117;SDS011;4594;50.994;7.126;2023-08-06T05:13:37;2.47;;;2.37;;
9117;SDS011;4594;50.994;7.126;2023-08-06T05:16:03;3.80;;;2.20;;
9117;SDS011;4594;50.994;7.126;2023-08-06T05:18:29;2.30;;;2.20;;
9117;SDS011;4594;50.994;7.126;2023-08-06T05:20:55;2.17;;;2.07;;
9117;SDS011;4594;50.994;7.126;2023-08-06T05:23:22;2.20;;;2.10;;
9117;SDS011;4594;50.994;7.126;2023-08-06T05:25:47;2.10;;;2.00;;
9117;SDS011;4594;50.994;7.126;2023-08-06T05:28:13;2.20;;;2.10;;
9117;SDS011;4594;50.994;7.126;2023-08-06T05:30:39;1.93;;;1.80;;
9117;SDS011;4594;50.994;7.126;2023-08-06T05:33:06;6.10;;;2.33;;
9117;SDS011;4594;50.994;7.126;2023-08-06T05:35:31;3.60;;;2.20;;
9117;SDS011;4594;50.994;7.126;2023-08-06T05:37:57;2.20;;;2.10;;
9117;SDS011;4594;50.994;7.126;2023-08-06T05:40:23;2.90;;;2.10;;
9117;SDS011;4594;50.994;7.126;2023-08-06T05:42:50;2.97;;;2.20;;
9117;SDS011;4594;50.994;7.126;2023-08-06T05:45:18;1.83;;;1.73;;
9117;SDS011;4594;50.994;7.126;2023-08-06T05:47:44;2.90;;;2.00;;
9117;SDS011;4594;50.994;7.126;2023-08-06T05:50:10;1.93;;;1.83;;
9117;SDS011;4594;50.994;7.126;2023-08-06T05:52:36;1.93;;;1.93;;
9117;SDS011;4594;50.994;7.126;2023-08-06T05:55:02;2.20;;;2.10;;
9117;SDS011;4594;50.994;7.126;2023-08-06T05:57:28;1.93;;;1.83;;
9117;SDS011;4594;50.994;7.126;2023-08-06T05:59:54;2.23;;;2.13;;
9117;SDS011;4594;50.994;7.126;2023-08-06T06:02:19;2.00;;;2.00;;
9117;SDS011;4594;50.994;7.126;2023-08-06T06:04:45;1.50;;;1.50;;
9117;SDS011;4594;50.994;7.126;2023-08-06T06:07:10;2.53;;;1.90;;
9117;SDS011;4594;50.994;7.126;2023-08-06T06:09:36;2.17;;;1.87;;
9117;SDS011;4594;50.994;7.126;2023-08-06T06:12:04;1.90;;;1.90;;
9117;SDS011;4594;50.994;7.126;2023-08-06T06:14:31;2.70;;;1.90;;
9117;SDS011;4594;50.994;7.126;2023-08-06T06:16:56;1.63;;;1.60;;
9117;SDS011;4594;50.994;7.126;2023-08-06T06:19:24;1.93;;;1.73;;
9117;SDS011;4594;50.994;7.126;2023-08-06T06:21:50;1.47;;;1.47;;
9117;SDS011;4594;50.994;7.126;2023-08-06T06:24:16;1.40;;;1.40;;
9117;SDS011;4594;50.994;7.126;2023-08-06T06:26:41;3.80;;;2.00;;
9117;SDS011;4594;50.994;7.126;2023-08-06T06:29:07;1.73;;;1.63;;
9117;SDS011;4594;50.994;7.126;2023-08-06T06:31:33;1.97;;;1.43;;
9117;SDS011;4594;50.994;7.126;2023-08-06T06:33:58;1.70;;;1.60;;
9117;SDS011;4594;50.994;7.126;2023-08-06T06:36:24;1.40;;;1.40;;
9117;SDS011;4594;50.994;7.126;2023-08-06T06:38:50;1.80;;;1.70;;
9117;SDS011;4594;50.994;7.126;2023-08-06T06:41:15;1.63;;;1.60;;
9117;SDS011;4594;50.994;7.126;2023-08-06T06:43:41;1.43;;;1.37;;
9117;SDS011;4594;50.994;7.126;2023-08-06T06:46:07;1.60;;;1.60;;
9117;SDS011;4594;50.994;7.126;2023-08-06T06:48:33;1.60;;;1.57;;
9117;SDS011;4594;50.994;7.126;2023-08-06T06:50:59;1.90;;;1.80;;
9117;SDS011;4594;50.994;7.126;2023-08-06T06:53:25;1.70;;;1.70;;
9117;SDS011;4594;50.994;7.126;2023-08-06T06:55:54;1.60;;;1.50;;
9117;SDS011;4594;50.994;7.126;2023-08-06T06:58:32;1.60;;;1.50;;
9117;SDS011;4594;50.994;7.126;2023-08-06T07:00:58;1.37;;;1.37;;
9117;SDS011;4594;50.994;7.126;2023-08-06T07:03:24;1.60;;;1.50;;
9117;SDS011;4594;50.994;7.126;2023-08-06T07:05:49;1.60;;;1.60;;
9117;SDS011;4594;50.994;7.126;2023-08-06T07:08:16;1.93;;;1.73;;
9117;SDS011;4594;50.994;7.126;2023-08-06T07:10:42;1.57;;;1.57;;
9117;SDS011;4594;50.994;7.126;2023-08-06T07:13:08;2.17;;;1.57;;
9117;SDS011;4594;50.994;7.126;2023-08-06T07:15:35;4.87;;;1.93;;
9117;SDS011;4594;50.994;7.126;2023-08-06T07:18:01;2.47;;;1.90;;
9117;SDS011;4594;50.994;7.126;2023-08-06T07:20:26;1.83;;;1.63;;
9117;SDS011;4594;50.994;7.126;2023-08-06T07:22:56;1.97;;;1.90;;
9117;SDS011;4594;50.994;7.126;2023-08-06T07:25:23;1.73;;;1.67;;
9117;SDS011;4594;50.994;7.126;2023-08-06T07:27:48;1.50;;;1.50;;
9117;SDS011;4594;50.994;7.126;2023-08-06T07:30:14;1.23;;;1.23;;
9117;SDS011;4594;50.994;7.126;2023-08-06T07:32:40;1.53;;;1.43;;
9117;SDS011;4594;50.994;7.126;2023-08-06T07:35:05;1.30;;;1.30;;
9117;SDS011;4594;50.994;7.126;2023-08-06T07:37:33;1.20;;;1.20;;
9117;SDS011;4594;50.994;7.126;2023-08-06T07:39:58;1.30;;;1.20;;
9117;SDS011;4594;50.994;7.126;2023-08-06T07:42:24;1.37;;;1.30;;
9117;SDS011;4594;50.994;7.126;2023-08-06T07:44:59;1.70;;;1.40;;
9117;SDS011;4594;50.994;7.126;2023-08-06T07:47:24;1.30;;;1.30;;
9117;SDS011;4594;50.994;7.126;2023-08-06T07:49:50;1.43;;;1.27;;
9117;SDS011;4594;50.994;7.126;2023-08-06T07:52:17;1.30;;;1.30;;
9117;SDS011;4594;50.994;7.126;2023-08-06T07:54:43;1.20;;;1.20;;
9117;SDS011;4594;50.994;7.126;2023-08-06T07:57:08;1.43;;;1.37;;
9117;SDS011;4594;50.994;7.126;2023-08-06T07:59:34;1.47;;;1.40;;
9117;SDS011;4594;50.994;7.126;2023-08-06T08:02:00;1.23;;;1.23;;
9117;SDS011;4594;50.994;7.126;2023-08-06T08:04:26;1.40;;;1.40;;
9117;SDS011;4594;50.994;7.126;2023-08-06T08:06:51;1.07;;;1.07;;
9117;SDS011;4594;50.994;7.126;2023-08-06T08:09:17;1.53;;;1.43;;
9117;SDS011;4594;50.994;7.126;2023-08-06T08:11:43;1.93;;;1.50;;
9117;SDS011;4594;50.994;7.126;2023-08-06T08:14:09;2.20;;;1.10;;
9117;SDS011;4594;50.994;7.126;2023-08-06T08:16:34;1.07;;;1.07;;
9117;SDS011;4594;50.994;7.126;2023-08-06T08:19:00;1.10;;;1.10;;
9117;SDS011;4594;50.994;7.126;2023-08-06T08:21:26;1.00;;;1.00;;
9117;SDS011;4594;50.994;7.126;2023-08-06T08:23:52;1.10;;;1.10;;
9117;SDS011;4594;50.994;7.126;2023-08-06T08:26:17;1.20;;;1.20;;
9117;SDS011;4594;50.994;7.126;2023-08-06T08:28:43;2.43;;;0.93;;
9117;SDS011;4594;50.994;7.126;2023-08-06T08:31:09;0.93;;;0.93;;
9117;SDS011;4594;50.994;7.126;2023-08-06T08:33:36;1.03;;;1.03;;
9117;SDS011;4594;50.994;7.126;2023-08-06T08:36:03;1.17;;;1.07;;
9117;SDS011;4594;50.994;7.126;2023-08-06T08:38:29;1.13;;;0.90;;
9117;SDS011;4594;50.994;7.126;2023-08-06T08:40:55;0.97;;;0.97;;
9117;SDS011;4594;50.994;7.126;2023-08-06T08:43:21;2.43;;;1.20;;
9117;SDS011;4594;50.994;7.126;2023-08-06T08:45:50;0.77;;;0.77;;
9117;SDS011;4594;50.994;7.126;2023-08-06T08:48:17;0.97;;;0.97;;
9117;SDS011;4594;50.994;7.126;2023-08-06T08:50:44;1.20;;;1.20;;
9117;SDS011;4594;50.994;7.126;2023-08-06T08:53:15;0.83;;;0.83;;
9117;SDS011;4594;50.994;7.126;2023-08-06T08:55:43;0.90;;;0.90;;
9117;SDS011;4594;50.994;7.126;2023-08-06T08:58:12;0.90;;;0.90;;
9117;SDS011;4594;50.994;7.126;2023-08-06T09:00:40;1.00;;;1.00;;
9117;SDS011;4594;50.994;7.126;2023-08-06T09:03:07;1.00;;;1.00;;
9117;SDS011;4594;50.994;7.126;2023-08-06T09:05:33;0.90;;;0.90;;
9117;SDS011;4594;50.994;7.126;2023-08-06T09:08:02;0.90;;;0.90;;
9117;SDS011;4594;50.994;7.126;2023-08-06T09:10:29;1.10;;;1.10;;
9117;SDS011;4594;50.994;7.126;2023-08-06T09:12:57;0.90;;;0.90;;
9117;SDS011;4594;50.994;7.126;2023-08-06T09:15:26;1.23;;;1.00;;
9117;SDS011;4594;50.994;7.126;2023-08-06T09:17:53;1.10;;;1.10;;
9117;SDS011;4594;50.994;7.126;2023-08-06T09:20:20;1.03;;;1.03;;
9117;SDS011;4594;50.994;7.126;2023-08-06T09:22:46;1.17;;;1.10;;
9117;SDS011;4594;50.994;7.126;2023-08-06T09:25:20;1.07;;;1.07;;
9117;SDS011;4594;50.994;7.126;2023-08-06T09:27:51;2.47;;;1.27;;
9117;SDS011;4594;50.994;7.126;2023-08-06T09:30:30;1.60;;;1.50;;
9117;SDS011;4594;50.994;7.126;2023-08-06T09:33:00;1.50;;;1.40;;
9117;SDS011;4594;50.994;7.126;2023-08-06T09:35:30;1.33;;;1.33;;
9117;SDS011;4594;50.994;7.126;2023-08-06T09:38:06;1.60;;;1.50;;
9117;SDS011;4594;50.994;7.126;2023-08-06T09:40:35;1.90;;;1.77;;
9117;SDS011;4594;50.994;7.126;2023-08-06T09:43:02;1.70;;;1.60;;
9117;SDS011;4594;50.994;7.126;2023-08-06T09:45:30;2.00;;;1.90;;
9117;SDS011;4594;50.994;7.126;2023-08-06T09:48:03;1.53;;;1.53;;
9117;SDS011;4594;50.994;7.126;2023-08-06T09:50:31;1.80;;;1.80;;
9117;SDS011;4594;50.994;7.126;2023-08-06T09:53:07;1.80;;;1.80;;
9117;SDS011;4594;50.994;7.126;2023-08-06T09:55:33;1.47;;;1.47;;
9117;SDS011;4594;50.994;7.126;2023-08-06T09:57:59;2.00;;;1.80;;
9117;SDS011;4594;50.994;7.126;2023-08-06T10:00:26;1.70;;;1.60;;
9117;SDS011;4594;50.994;7.126;2023-08-06T10:02:54;1.90;;;1.90;;
9117;SDS011;4594;50.994;7.126;2023-08-06T10:05:24;1.97;;;1.97;;
9117;SDS011;4594;50.994;7.126;2023-08-06T10:07:52;2.10;;;2.10;;
9117;SDS011;4594;50.994;7.126;2023-08-06T10:10:20;2.17;;;2.17;;
9117;SDS011;4594;50.994;7.126;2023-08-06T10:12:48;2.17;;;2.13;;
9117;SDS011;4594;50.994;7.126;2023-08-06T10:15:18;2.43;;;2.33;;
9117;SDS011;4594;50.994;7.126;2023-08-06T10:17:51;2.43;;;2.33;;
9117;SDS011;4594;50.994;7.126;2023-08-06T10:20:21;2.37;;;2.27;;
9117;SDS011;4594;50.994;7.126;2023-08-06T10:23:00;2.30;;;2.27;;
9117;SDS011;4594;50.994;7.126;2023-08-06T10:25:28;2.70;;;2.50;;
9117;SDS011;4594;50.994;7.126;2023-08-06T10:27:57;2.47;;;2.30;;
9117;SDS011;4594;50.994;7.126;2023-08-06T10:30:24;3.90;;;2.30;;
9117;SDS011;4594;50.994;7.126;2023-08-06T10:33:00;1.90;;;1.80;;
9117;SDS011;4594;50.994;7.126;2023-08-06T10:43:34;1.37;;;0.87;;
9117;SDS011;4594;50.994;7.126;2023-08-06T10:46:11;0.53;;;0.53;;
9117;SDS011;4594;50.994;7.126;2023-08-06T10:48:48;2.93;;;0.73;;
9117;SDS011;4594;50.994;7.126;2023-08-06T10:51:14;0.70;;;0.60;;
9117;SDS011;4594;50.994;7.126;2023-08-06T10:53:44;0.70;;;0.70;;
9117;SDS011;4594;50.994;7.126;2023-08-06T10:56:15;0.60;;;0.60;;
9117;SDS011;4594;50.994;7.126;2023-08-06T10:58:45;0.60;;;0.60;;
9117;SDS011;4594;50.994;7.126;2023-08-06T11:01:12;0.70;;;0.70;;
9117;SDS011;4594;50.994;7.126;2023-08-06T11:03:38;0.70;;;0.70;;
9117;SDS011;4594;50.994;7.126;2023-08-06T11:06:06;0.77;;;0.77;;
9117;SDS011;4594;50.994;7.126;2023-08-06T11:08:33;0.90;;;0.90;;
9117;SDS011;4594;50.994;7.126;2023-08-06T11:11:08;2.87;;;0.83;;
9117;SDS011;4594;50.994;7.126;2023-08-06T11:13:40;0.80;;;0.80;;
9117;SDS011;4594;50.994;7.126;2023-08-06T11:16:11;0.77;;;0.77;;
9117;SDS011;4594;50.994;7.126;2023-08-06T11:18:43;1.20;;;1.10;;
9117;SDS011;4594;50.994;7.126;2023-08-06T11:21:09;1.07;;;1.07;;
9117;SDS011;4594;50.994;7.126;2023-08-06T11:23:37;0.87;;;0.87;;
9117;SDS011;4594;50.994;7.126;2023-08-06T11:26:03;1.13;;;1.13;;
9117;SDS011;4594;50.994;7.126;2023-08-06T11:28:29;1.13;;;1.13;;
9117;SDS011;4594;50.994;7.126;2023-08-06T11:30:54;1.90;;;1.30;;
9117;SDS011;4594;50.994;7.126;2023-08-06T11:33:25;1.57;;;1.50;;
9117;SDS011;4594;50.994;7.126;2023-08-06T11:35:51;5.93;;;5.33;;
9117;SDS011;4594;50.994;7.126;2023-08-06T11:38:19;4.47;;;4.00;;
9117;SDS011;4594;50.994;7.126;2023-08-06T11:40:45;3.10;;;2.90;;
9117;SDS011;4594;50.994;7.126;2023-08-06T11:43:12;2.60;;;2.40;;
9117;SDS011;4594;50.994;7.126;2023-08-06T11:45:39;1.83;;;1.80;;
9117;SDS011;4594;50.994;7.126;2023-08-06T11:48:06;2.13;;;1.90;;
9117;SDS011;4594;50.994;7.126;2023-08-06T11:50:36;1.90;;;1.80;;
9117;SDS011;4594;50.994;7.126;2023-08-06T11:53:06;1.80;;;1.70;;
9117;SDS011;4594;50.994;7.126;2023-08-06T11:55:32;2.07;;;1.90;;
9117;SDS011;4594;50.994;7.126;2023-08-06T11:57:59;2.20;;;2.07;;
9117;SDS011;4594;50.994;7.126;2023-08-06T12:00:29;3.27;;;1.90;;
9117;SDS011;4594;50.994;7.126;2023-08-06T12:02:57;1.97;;;1.77;;
9117;SDS011;4594;50.994;7.126;2023-08-06T12:05:23;2.93;;;2.00;;
9117;SDS011;4594;50.994;7.126;2023-08-06T12:07:56;2.73;;;1.90;;
9117;SDS011;4594;50.994;7.126;2023-08-06T12:10:24;3.70;;;1.93;;
9117;SDS011;4594;50.994;7.126;2023-08-06T12:12:51;2.53;;;2.33;;
9117;SDS011;4594;50.994;7.126;2023-08-06T12:15:18;4.37;;;1.80;;
9117;SDS011;4594;50.994;7.126;2023-08-06T12:17:45;3.73;;;1.97;;
9117;SDS011;4594;50.994;7.126;2023-08-06T12:20:11;1.80;;;1.70;;
9117;SDS011;4594;50.994;7.126;2023-08-06T12:22:38;2.60;;;1.77;;
9117;SDS011;4594;50.994;7.126;2023-08-06T12:27:37;1.73;;;1.67;;
9117;SDS011;4594;50.994;7.126;2023-08-06T12:30:06;2.10;;;1.90;;
9117;SDS011;4594;50.994;7.126;2023-08-06T12:32:33;1.97;;;1.87;;
9117;SDS011;4594;50.994;7.126;2023-08-06T12:35:00;1.87;;;1.70;;
9117;SDS011;4594;50.994;7.126;2023-08-06T12:37:29;3.17;;;1.90;;
9117;SDS011;4594;50.994;7.126;2023-08-06T12:39:55;1.70;;;1.60;;
9117;SDS011;4594;50.994;7.126;2023-08-06T12:42:21;2.07;;;1.97;;
9117;SDS011;4594;50.994;7.126;2023-08-06T12:44:50;1.50;;;1.50;;
9117;SDS011;4594;50.994;7.126;2023-08-06T12:47:16;1.60;;;1.50;;
9117;SDS011;4594;50.994;7.126;2023-08-06T12:49:43;2.90;;;1.90;;
9117;SDS011;4594;50.994;7.126;2023-08-06T12:52:09;1.83;;;1.73;;
9117;SDS011;4594;50.994;7.126;2023-08-06T12:54:37;2.10;;;1.70;;
9117;SDS011;4594;50.994;7.126;2023-08-06T12:57:03;2.00;;;1.90;;
9117;SDS011;4594;50.994;7.126;2023-08-06T12:59:30;1.90;;;1.80;;
9117;SDS011;4594;50.994;7.126;2023-08-06T13:01:56;1.80;;;1.67;;
9117;SDS011;4594;50.994;7.126;2023-08-06T13:04:21;3.73;;;2.10;;
9117;SDS011;4594;50.994;7.126;2023-08-06T13:06:47;2.30;;;1.77;;
9117;SDS011;4594;50.994;7.126;2023-08-06T13:09:13;4.20;;;1.80;;
9117;SDS011;4594;50.994;7.126;2023-08-06T13:11:40;1.53;;;1.23;;
9117;SDS011;4594;50.994;7.126;2023-08-06T13:14:10;1.53;;;1.43;;
9117;SDS011;4594;50.994;7.126;2023-08-06T13:16:38;3.10;;;1.70;;
9117;SDS011;4594;50.994;7.126;2023-08-06T13:19:06;1.47;;;1.47;;
9117;SDS011;4594;50.994;7.126;2023-08-06T13:21:33;1.73;;;1.50;;
9117;SDS011;4594;50.994;7.126;2023-08-06T13:24:19;6.77;;;2.20;;
9117;SDS011;4594;50.994;7.126;2023-08-06T13:26:45;1.87;;;1.77;;
9117;SDS011;4594;50.994;7.126;2023-08-06T13:29:11;2.23;;;2.10;;
9117;SDS011;4594;50.994;7.126;2023-08-06T13:31:36;3.67;;;1.70;;
9117;SDS011;4594;50.994;7.126;2023-08-06T13:34:02;2.10;;;2.00;;
9117;SDS011;4594;50.994;7.126;2023-08-06T13:36:29;2.17;;;1.90;;
9117;SDS011;4594;50.994;7.126;2023-08-06T13:38:55;2.17;;;1.80;;
9117;SDS011;4594;50.994;7.126;2023-08-06T13:41:21;1.90;;;1.80;;
9117;SDS011;4594;50.994;7.126;2023-08-06T13:43:47;2.10;;;2.00;;
9117;SDS011;4594;50.994;7.126;2023-08-06T13:46:13;2.10;;;1.90;;
9117;SDS011;4594;50.994;7.126;2023-08-06T13:48:41;2.10;;;1.93;;
9117;SDS011;4594;50.994;7.126;2023-08-06T13:51:08;2.60;;;2.17;;
9117;SDS011;4594;50.994;7.126;2023-08-06T13:53:36;5.27;;;2.20;;
9117;SDS011;4594;50.994;7.126;2023-08-06T13:56:02;2.20;;;2.03;;
9117;SDS011;4594;50.994;7.126;2023-08-06T13:58:29;2.53;;;2.20;;
9117;SDS011;4594;50.994;7.126;2023-08-06T14:00:55;2.17;;;2.07;;
9117;SDS011;4594;50.994;7.126;2023-08-06T14:03:22;1.93;;;1.83;;
9117;SDS011;4594;50.994;7.126;2023-08-06T14:05:48;3.40;;;2.60;;
9117;SDS011;4594;50.994;7.126;2023-08-06T14:08:13;7.20;;;2.10;;
9117;SDS011;4594;50.994;7.126;2023-08-06T14:10:43;2.00;;;1.80;;
9117;SDS011;4594;50.994;7.126;2023-08-06T14:13:09;2.23;;;2.00;;
9117;SDS011;4594;50.994;7.126;2023-08-06T14:15:35;2.27;;;2.03;;
9117;SDS011;4594;50.994;7.126;2023-08-06T14:18:04;2.27;;;2.17;;
9117;SDS011;4594;50.994;7.126;2023-08-06T14:20:30;2.30;;;2.20;;
9117;SDS011;4594;50.994;7.126;2023-08-06T14:22:56;2.17;;;1.90;;
9117;SDS011;4594;50.994;7.126;2023-08-06T14:25:22;2.20;;;2.10;;
9117;SDS011;4594;50.994;7.126;2023-08-06T14:27:47;2.83;;;2.30;;
9117;SDS011;4594;50.994;7.126;2023-08-06T14:30:13;2.03;;;1.93;;
9117;SDS011;4594;50.994;7.126;2023-08-06T14:32:39;3.63;;;2.40;;
9117;SDS011;4594;50.994;7.126;2023-08-06T14:35:04;2.07;;;1.90;;
9117;SDS011;4594;50.994;7.126;2023-08-06T14:37:30;2.83;;;2.23;;
9117;SDS011;4594;50.994;7.126;2023-08-06T14:39:56;3.37;;;2.33;;
9117;SDS011;4594;50.994;7.126;2023-08-06T14:42:22;2.00;;;1.90;;
9117;SDS011;4594;50.994;7.126;2023-08-06T14:44:48;2.00;;;2.00;;
9117;SDS011;4594;50.994;7.126;2023-08-06T14:47:20;2.40;;;2.20;;
9117;SDS011;4594;50.994;7.126;2023-08-06T14:49:46;3.13;;;1.90;;
9117;SDS011;4594;50.994;7.126;2023-08-06T14:52:13;2.00;;;1.90;;
9117;SDS011;4594;50.994;7.126;2023-08-06T14:54:38;2.27;;;2.10;;
9117;SDS011;4594;50.994;7.126;2023-08-06T14:57:04;3.17;;;2.03;;
9117;SDS011;4594;50.994;7.126;2023-08-06T14:59:30;2.23;;;1.90;;
9117;SDS011;4594;50.994;7.126;2023-08-06T15:01:55;1.93;;;1.83;;
9117;SDS011;4594;50.994;7.126;2023-08-06T15:04:21;5.67;;;1.57;;
9117;SDS011;4594;50.994;7.126;2023-08-06T15:06:48;1.97;;;1.53;;
9117;SDS011;4594;50.994;7.126;2023-08-06T15:09:14;4.90;;;1.80;;
9117;SDS011;4594;50.994;7.126;2023-08-06T15:11:40;7.57;;;1.53;;
9117;SDS011;4594;50.994;7.126;2023-08-06T15:14:05;5.20;;;1.63;;
9117;SDS011;4594;50.994;7.126;2023-08-06T15:16:32;2.70;;;1.40;;
9117;SDS011;4594;50.994;7.126;2023-08-06T15:18:59;1.47;;;1.37;;
9117;SDS011;4594;50.994;7.126;2023-08-06T15:21:26;1.50;;;1.40;;
9117;SDS011;4594;50.994;7.126;2023-08-06T15:23:52;4.17;;;1.60;;
9117;SDS011;4594;50.994;7.126;2023-08-06T15:26:18;2.43;;;1.80;;
9117;SDS011;4594;50.994;7.126;2023-08-06T15:28:45;3.80;;;1.70;;